sensor_id;sensor_type;location;lat;lon;timestamp;P1;durP1;ratioP1;P2;durP2;ratioP2
7201;SDS011;3642;52.506;13.304;2022-07-04T00:01:59;2.20;;;2.03;;
7201;SDS011;3642;52.506;13.304;2022-07-04T00:04:27;2.88;;;2.15;;
7201;SDS011;3642;52.506;13.304;2022-07-04T00:06:55;2.55;;;2.10;;
7201;SDS011;3642;52.506;13.304;2022-07-04T00:09:24;2.70;;;2.50;;
7201;SDS011;3642;52.506;13.304;2022-07-04T00:11:52;2.10;;;1.90;;
7201;SDS011;3642;52.506;13.304;2022-07-04T00:14:20;2.60;;;1.92;;
7201;SDS011;3642;52.506;13.304;2022-07-04T00:16:48;2.53;;;1.70;;
7201;SDS011;3642;52.506;13.304;2022-07-04T00:19:18;2.22;;;2.10;;
7201;SDS011;3642;52.506;13.304;2022-07-04T00:21:46;2.20;;;2.00;;
7201;SDS011;3642;52.506;13.304;2022-07-04T00:24:14;3.42;;;1.88;;
7201;SDS011;3642;52.506;13.304;2022-07-04T00:26:42;3.90;;;1.98;;
7201;SDS011;3642;52.506;13.304;2022-07-04T00:29:10;2.67;;;1.90;;
7201;SDS011;3642;52.506;13.304;2022-07-04T00:31:38;2.13;;;1.92;;
7201;SDS011;3642;52.506;13.304;2022-07-04T00:34:07;2.40;;;2.20;;
7201;SDS011;3642;52.506;13.304;2022-07-04T00:36:36;2.28;;;2.08;;
7201;SDS011;3642;52.506;13.304;2022-07-04T00:39:04;2.40;;;2.20;;
7201;SDS011;3642;52.506;13.304;2022-07-04T00:41:32;2.47;;;2.28;;
7201;SDS011;3642;52.506;13.304;2022-07-04T00:44:01;2.55;;;2.20;;
7201;SDS011;3642;52.506;13.304;2022-07-04T00:46:39;2.40;;;2.20;;
7201;SDS011;3642;52.506;13.304;2022-07-04T00:49:08;3.03;;;2.25;;
7201;SDS011;3642;52.506;13.304;2022-07-04T00:51:38;2.55;;;2.35;;
7201;SDS011;3642;52.506;13.304;2022-07-04T00:54:08;3.40;;;2.53;;
7201;SDS011;3642;52.506;13.304;2022-07-04T00:56:42;2.20;;;2.00;;
7201;SDS011;3642;52.506;13.304;2022-07-04T00:59:12;2.38;;;2.10;;
7201;SDS011;3642;52.506;13.304;2022-07-04T01:01:40;2.60;;;2.40;;
7201;SDS011;3642;52.506;13.304;2022-07-04T01:04:08;2.38;;;2.17;;
7201;SDS011;3642;52.506;13.304;2022-07-04T01:06:38;2.50;;;2.20;;
7201;SDS011;3642;52.506;13.304;2022-07-04T01:09:06;2.67;;;2.30;;
7201;SDS011;3642;52.506;13.304;2022-07-04T01:11:34;2.50;;;2.30;;
7201;SDS011;3642;52.506;13.304;2022-07-04T01:14:02;2.38;;;2.17;;
7201;SDS011;3642;52.506;13.304;2022-07-04T01:16:32;2.30;;;2.10;;
7201;SDS011;3642;52.506;13.304;2022-07-04T01:19:00;2.22;;;2.10;;
7201;SDS011;3642;52.506;13.304;2022-07-04T01:21:30;2.17;;;1.92;;
7201;SDS011;3642;52.506;13.304;2022-07-04T01:23:59;2.42;;;2.22;;
7201;SDS011;3642;52.506;13.304;2022-07-04T01:26:28;2.80;;;2.08;;
7201;SDS011;3642;52.506;13.304;2022-07-04T01:28:56;2.55;;;2.35;;
7201;SDS011;3642;52.506;13.304;2022-07-04T01:31:24;2.97;;;2.67;;
7201;SDS011;3642;52.506;13.304;2022-07-04T01:33:53;2.58;;;2.38;;
7201;SDS011;3642;52.506;13.304;2022-07-04T01:36:21;5.13;;;2.40;;
7201;SDS011;3642;52.506;13.304;2022-07-04T01:38:50;2.33;;;2.13;;
7201;SDS011;3642;52.506;13.304;2022-07-04T01:41:18;2.85;;;2.60;;
7201;SDS011;3642;52.506;13.304;2022-07-04T01:43:46;3.22;;;2.58;;
7201;SDS011;3642;52.506;13.304;2022-07-04T01:46:14;2.63;;;2.42;;
7201;SDS011;3642;52.506;13.304;2022-07-04T01:48:43;2.78;;;2.58;;
7201;SDS011;3642;52.506;13.304;2022-07-04T01:51:13;3.70;;;2.78;;
7201;SDS011;3642;52.506;13.304;2022-07-04T01:53:41;3.08;;;2.72;;
7201;SDS011;3642;52.506;13.304;2022-07-04T01:56:10;3.20;;;2.90;;
7201;SDS011;3642;52.506;13.304;2022-07-04T01:58:38;3.07;;;2.70;;
7201;SDS011;3642;52.506;13.304;2022-07-04T02:01:06;3.30;;;3.00;;
7201;SDS011;3642;52.506;13.304;2022-07-04T02:03:52;4.68;;;3.13;;
7201;SDS011;3642;52.506;13.304;2022-07-04T02:06:20;3.28;;;2.97;;
7201;SDS011;3642;52.506;13.304;2022-07-04T02:08:48;3.30;;;3.10;;
7201;SDS011;3642;52.506;13.304;2022-07-04T02:11:35;6.00;;;3.95;;
7201;SDS011;3642;52.506;13.304;2022-07-04T02:14:17;3.50;;;3.20;;
7201;SDS011;3642;52.506;13.304;2022-07-04T02:16:45;3.27;;;3.07;;
7201;SDS011;3642;52.506;13.304;2022-07-04T02:19:13;3.60;;;3.30;;
7201;SDS011;3642;52.506;13.304;2022-07-04T02:21:41;3.87;;;3.57;;
7201;SDS011;3642;52.506;13.304;2022-07-04T02:24:09;3.72;;;3.38;;
7201;SDS011;3642;52.506;13.304;2022-07-04T02:26:39;3.90;;;3.60;;
7201;SDS011;3642;52.506;13.304;2022-07-04T02:29:08;4.38;;;3.67;;
7201;SDS011;3642;52.506;13.304;2022-07-04T02:31:36;4.03;;;3.63;;
7201;SDS011;3642;52.506;13.304;2022-07-04T02:34:04;4.00;;;3.70;;
7201;SDS011;3642;52.506;13.304;2022-07-04T02:36:32;4.53;;;4.13;;
7201;SDS011;3642;52.506;13.304;2022-07-04T02:39:00;4.87;;;3.87;;
7201;SDS011;3642;52.506;13.304;2022-07-04T02:41:28;4.03;;;3.73;;
7201;SDS011;3642;52.506;13.304;2022-07-04T02:43:58;4.00;;;3.70;;
7201;SDS011;3642;52.506;13.304;2022-07-04T02:46:26;5.10;;;4.10;;
7201;SDS011;3642;52.506;13.304;2022-07-04T02:48:54;5.67;;;4.23;;
7201;SDS011;3642;52.506;13.304;2022-07-04T02:51:23;4.00;;;3.70;;
7201;SDS011;3642;52.506;13.304;2022-07-04T02:53:51;4.60;;;4.13;;
7201;SDS011;3642;52.506;13.304;2022-07-04T02:56:19;4.43;;;4.03;;
7201;SDS011;3642;52.506;13.304;2022-07-04T02:58:47;5.30;;;3.77;;
7201;SDS011;3642;52.506;13.304;2022-07-04T03:01:17;4.27;;;3.90;;
7201;SDS011;3642;52.506;13.304;2022-07-04T03:03:46;5.40;;;4.10;;
7201;SDS011;3642;52.506;13.304;2022-07-04T03:06:14;3.70;;;3.40;;
7201;SDS011;3642;52.506;13.304;2022-07-04T03:08:42;4.73;;;3.97;;
7201;SDS011;3642;52.506;13.304;2022-07-04T03:11:11;4.47;;;4.07;;
7201;SDS011;3642;52.506;13.304;2022-07-04T03:13:39;5.03;;;4.53;;
7201;SDS011;3642;52.506;13.304;2022-07-04T03:16:08;4.47;;;3.80;;
7201;SDS011;3642;52.506;13.304;2022-07-04T03:18:37;4.77;;;4.30;;
7201;SDS011;3642;52.506;13.304;2022-07-04T03:21:06;5.37;;;4.50;;
7201;SDS011;3642;52.506;13.304;2022-07-04T03:23:38;4.77;;;4.30;;
7201;SDS011;3642;52.506;13.304;2022-07-04T03:26:06;5.40;;;4.90;;
7201;SDS011;3642;52.506;13.304;2022-07-04T03:28:35;5.20;;;4.37;;
7201;SDS011;3642;52.506;13.304;2022-07-04T03:31:03;4.70;;;4.30;;
7201;SDS011;3642;52.506;13.304;2022-07-04T03:33:32;6.83;;;4.43;;
7201;SDS011;3642;52.506;13.304;2022-07-04T03:36:01;4.73;;;4.33;;
7201;SDS011;3642;52.506;13.304;2022-07-04T03:38:29;4.97;;;4.50;;
7201;SDS011;3642;52.506;13.304;2022-07-04T03:40:57;5.30;;;4.80;;
7201;SDS011;3642;52.506;13.304;2022-07-04T03:43:25;5.93;;;5.13;;
7201;SDS011;3642;52.506;13.304;2022-07-04T03:45:53;5.43;;;4.90;;
7201;SDS011;3642;52.506;13.304;2022-07-04T03:48:22;6.00;;;5.40;;
7201;SDS011;3642;52.506;13.304;2022-07-04T03:50:50;6.83;;;5.00;;
7201;SDS011;3642;52.506;13.304;2022-07-04T03:53:19;6.23;;;5.47;;
7201;SDS011;3642;52.506;13.304;2022-07-04T03:55:48;5.77;;;5.30;;
7201;SDS011;3642;52.506;13.304;2022-07-04T03:58:16;6.73;;;5.23;;
7201;SDS011;3642;52.506;13.304;2022-07-04T04:00:44;6.10;;;5.57;;
7201;SDS011;3642;52.506;13.304;2022-07-04T04:03:12;6.07;;;5.47;;
7201;SDS011;3642;52.506;13.304;2022-07-04T04:05:55;6.57;;;5.23;;
7201;SDS011;3642;52.506;13.304;2022-07-04T04:08:24;6.10;;;5.43;;
7201;SDS011;3642;52.506;13.304;2022-07-04T04:10:52;5.73;;;5.20;;
7201;SDS011;3642;52.506;13.304;2022-07-04T04:13:21;5.40;;;5.00;;
7201;SDS011;3642;52.506;13.304;2022-07-04T04:15:49;6.17;;;5.57;;
7201;SDS011;3642;52.506;13.304;2022-07-04T04:18:17;5.90;;;5.27;;
7201;SDS011;3642;52.506;13.304;2022-07-04T04:20:45;6.30;;;5.33;;
7201;SDS011;3642;52.506;13.304;2022-07-04T04:23:13;6.03;;;5.40;;
7201;SDS011;3642;52.506;13.304;2022-07-04T04:25:42;6.00;;;4.77;;
7201;SDS011;3642;52.506;13.304;2022-07-04T04:28:10;5.10;;;4.60;;
7201;SDS011;3642;52.506;13.304;2022-07-04T04:30:38;5.67;;;5.03;;
7201;SDS011;3642;52.506;13.304;2022-07-04T04:33:06;4.93;;;4.53;;
7201;SDS011;3642;52.506;13.304;2022-07-04T04:35:35;6.67;;;4.60;;
7201;SDS011;3642;52.506;13.304;2022-07-04T04:38:03;7.20;;;4.57;;
7201;SDS011;3642;52.506;13.304;2022-07-04T04:40:31;5.60;;;4.30;;
7201;SDS011;3642;52.506;13.304;2022-07-04T04:43:00;4.97;;;4.50;;
7201;SDS011;3642;52.506;13.304;2022-07-04T04:45:29;5.93;;;4.50;;
7201;SDS011;3642;52.506;13.304;2022-07-04T04:47:57;4.80;;;4.40;;
7201;SDS011;3642;52.506;13.304;2022-07-04T04:50:25;4.93;;;4.10;;
7201;SDS011;3642;52.506;13.304;2022-07-04T04:52:53;4.13;;;3.83;;
7201;SDS011;3642;52.506;13.304;2022-07-04T04:55:21;4.30;;;3.57;;
7201;SDS011;3642;52.506;13.304;2022-07-04T04:57:50;4.27;;;3.90;;
7201;SDS011;3642;52.506;13.304;2022-07-04T05:00:19;5.07;;;4.00;;
7201;SDS011;3642;52.506;13.304;2022-07-04T05:02:47;5.07;;;3.57;;
7201;SDS011;3642;52.506;13.304;2022-07-04T05:05:15;4.10;;;3.53;;
7201;SDS011;3642;52.506;13.304;2022-07-04T05:07:44;4.03;;;3.43;;
7201;SDS011;3642;52.506;13.304;2022-07-04T05:10:12;5.97;;;3.37;;
7201;SDS011;3642;52.506;13.304;2022-07-04T05:12:42;4.07;;;3.43;;
7201;SDS011;3642;52.506;13.304;2022-07-04T05:15:10;3.90;;;3.50;;
7201;SDS011;3642;52.506;13.304;2022-07-04T05:17:40;3.53;;;3.23;;
7201;SDS011;3642;52.506;13.304;2022-07-04T05:20:08;3.53;;;3.23;;
7201;SDS011;3642;52.506;13.304;2022-07-04T05:22:37;3.43;;;3.13;;
7201;SDS011;3642;52.506;13.304;2022-07-04T05:25:05;3.40;;;3.10;;
7201;SDS011;3642;52.506;13.304;2022-07-04T05:27:34;4.33;;;3.60;;
7201;SDS011;3642;52.506;13.304;2022-07-04T05:30:03;3.33;;;3.03;;
7201;SDS011;3642;52.506;13.304;2022-07-04T05:32:32;5.70;;;3.30;;
7201;SDS011;3642;52.506;13.304;2022-07-04T05:35:02;3.47;;;3.17;;
7201;SDS011;3642;52.506;13.304;2022-07-04T05:37:31;3.20;;;2.90;;
7201;SDS011;3642;52.506;13.304;2022-07-04T05:39:59;3.23;;;3.03;;
7201;SDS011;3642;52.506;13.304;2022-07-04T05:42:27;3.70;;;3.07;;
7201;SDS011;3642;52.506;13.304;2022-07-04T05:44:55;3.70;;;3.20;;
7201;SDS011;3642;52.506;13.304;2022-07-04T05:47:23;3.23;;;2.87;;
7201;SDS011;3642;52.506;13.304;2022-07-04T05:49:52;5.87;;;3.13;;
7201;SDS011;3642;52.506;13.304;2022-07-04T05:52:21;2.90;;;2.70;;
7201;SDS011;3642;52.506;13.304;2022-07-04T05:54:49;4.03;;;2.67;;
7201;SDS011;3642;52.506;13.304;2022-07-04T05:57:17;3.10;;;2.90;;
7201;SDS011;3642;52.506;13.304;2022-07-04T05:59:46;3.03;;;2.70;;
7201;SDS011;3642;52.506;13.304;2022-07-04T06:02:14;2.47;;;2.27;;
7201;SDS011;3642;52.506;13.304;2022-07-04T06:04:42;2.10;;;1.80;;
7201;SDS011;3642;52.506;13.304;2022-07-04T06:07:12;2.10;;;2.00;;
7201;SDS011;3642;52.506;13.304;2022-07-04T06:09:41;3.27;;;2.07;;
7201;SDS011;3642;52.506;13.304;2022-07-04T06:12:10;2.20;;;2.10;;
7201;SDS011;3642;52.506;13.304;2022-07-04T06:14:38;3.43;;;2.13;;
7201;SDS011;3642;52.506;13.304;2022-07-04T06:17:07;2.77;;;1.80;;
7201;SDS011;3642;52.506;13.304;2022-07-04T06:19:35;3.23;;;2.10;;
7201;SDS011;3642;52.506;13.304;2022-07-04T06:22:03;2.00;;;1.80;;
7201;SDS011;3642;52.506;13.304;2022-07-04T06:24:31;1.57;;;1.47;;
7201;SDS011;3642;52.506;13.304;2022-07-04T06:27:01;1.70;;;1.60;;
7201;SDS011;3642;52.506;13.304;2022-07-04T06:29:30;2.70;;;1.70;;
7201;SDS011;3642;52.506;13.304;2022-07-04T06:31:58;3.77;;;1.60;;
7201;SDS011;3642;52.506;13.304;2022-07-04T06:34:26;2.50;;;1.60;;
7201;SDS011;3642;52.506;13.304;2022-07-04T06:37:12;2.70;;;1.70;;
7201;SDS011;3642;52.506;13.304;2022-07-04T06:39:41;3.23;;;1.97;;
7201;SDS011;3642;52.506;13.304;2022-07-04T06:42:10;1.60;;;1.50;;
7201;SDS011;3642;52.506;13.304;2022-07-04T06:44:39;3.23;;;1.50;;
7201;SDS011;3642;52.506;13.304;2022-07-04T06:47:07;3.27;;;1.63;;
7201;SDS011;3642;52.506;13.304;2022-07-04T06:49:35;3.00;;;1.67;;
7201;SDS011;3642;52.506;13.304;2022-07-04T06:52:04;1.97;;;1.47;;
7201;SDS011;3642;52.506;13.304;2022-07-04T06:54:32;2.70;;;1.70;;
7201;SDS011;3642;52.506;13.304;2022-07-04T06:57:01;2.00;;;1.60;;
7201;SDS011;3642;52.506;13.304;2022-07-04T06:59:50;1.60;;;1.50;;
7201;SDS011;3642;52.506;13.304;2022-07-04T07:02:18;1.40;;;1.30;;
7201;SDS011;3642;52.506;13.304;2022-07-04T07:04:47;1.90;;;1.70;;
7201;SDS011;3642;52.506;13.304;2022-07-04T07:07:15;2.73;;;1.30;;
7201;SDS011;3642;52.506;13.304;2022-07-04T07:09:43;2.50;;;1.80;;
7201;SDS011;3642;52.506;13.304;2022-07-04T07:12:13;1.50;;;1.40;;
7201;SDS011;3642;52.506;13.304;2022-07-04T07:14:42;1.80;;;1.70;;
7201;SDS011;3642;52.506;13.304;2022-07-04T07:17:11;1.60;;;1.47;;
7201;SDS011;3642;52.506;13.304;2022-07-04T07:19:41;1.63;;;1.53;;
7201;SDS011;3642;52.506;13.304;2022-07-04T07:22:10;1.60;;;1.30;;
7201;SDS011;3642;52.506;13.304;2022-07-04T07:24:39;1.63;;;1.10;;
7201;SDS011;3642;52.506;13.304;2022-07-04T07:27:07;2.15;;;1.20;;
7201;SDS011;3642;52.506;13.304;2022-07-04T07:29:36;1.10;;;1.07;;
7201;SDS011;3642;52.506;13.304;2022-07-04T07:32:05;3.23;;;1.57;;
7201;SDS011;3642;52.506;13.304;2022-07-04T07:34:35;2.17;;;1.07;;
7201;SDS011;3642;52.506;13.304;2022-07-04T07:37:03;3.55;;;1.60;;
7201;SDS011;3642;52.506;13.304;2022-07-04T07:39:31;3.42;;;1.42;;
7201;SDS011;3642;52.506;13.304;2022-07-04T07:42:06;3.43;;;1.27;;
7201;SDS011;3642;52.506;13.304;2022-07-04T07:44:35;1.90;;;1.15;;
7201;SDS011;3642;52.506;13.304;2022-07-04T07:47:04;1.93;;;1.30;;
7201;SDS011;3642;52.506;13.304;2022-07-04T07:49:40;1.23;;;1.10;;
7201;SDS011;3642;52.506;13.304;2022-07-04T07:52:09;1.20;;;1.10;;
7201;SDS011;3642;52.506;13.304;2022-07-04T07:54:38;1.80;;;1.00;;
7201;SDS011;3642;52.506;13.304;2022-07-04T07:57:25;1.50;;;0.90;;
7201;SDS011;3642;52.506;13.304;2022-07-04T07:59:53;3.05;;;1.20;;
7201;SDS011;3642;52.506;13.304;2022-07-04T08:02:21;2.23;;;1.20;;
7201;SDS011;3642;52.506;13.304;2022-07-04T08:05:12;1.23;;;1.10;;
7201;SDS011;3642;52.506;13.304;2022-07-04T08:07:39;0.90;;;0.90;;
7201;SDS011;3642;52.506;13.304;2022-07-04T08:10:08;1.13;;;1.00;;
7201;SDS011;3642;52.506;13.304;2022-07-04T08:12:37;3.77;;;1.70;;
7201;SDS011;3642;52.506;13.304;2022-07-04T08:15:05;2.10;;;1.50;;
7201;SDS011;3642;52.506;13.304;2022-07-04T08:17:34;1.43;;;1.00;;
7201;SDS011;3642;52.506;13.304;2022-07-04T08:20:02;1.20;;;1.10;;
7201;SDS011;3642;52.506;13.304;2022-07-04T08:22:32;3.80;;;0.90;;
7201;SDS011;3642;52.506;13.304;2022-07-04T08:25:00;2.60;;;1.67;;
7201;SDS011;3642;52.506;13.304;2022-07-04T08:27:29;1.15;;;1.05;;
7201;SDS011;3642;52.506;13.304;2022-07-04T08:29:58;1.73;;;1.10;;
7201;SDS011;3642;52.506;13.304;2022-07-04T08:32:27;1.27;;;0.93;;
7201;SDS011;3642;52.506;13.304;2022-07-04T08:34:55;1.00;;;0.90;;
7201;SDS011;3642;52.506;13.304;2022-07-04T08:37:23;1.20;;;1.10;;
7201;SDS011;3642;52.506;13.304;2022-07-04T08:39:53;4.30;;;2.10;;
7201;SDS011;3642;52.506;13.304;2022-07-04T08:42:21;2.00;;;1.65;;
7201;SDS011;3642;52.506;13.304;2022-07-04T08:44:51;1.92;;;1.38;;
7201;SDS011;3642;52.506;13.304;2022-07-04T08:47:22;3.72;;;1.40;;
7201;SDS011;3642;52.506;13.304;2022-07-04T08:49:52;1.05;;;0.98;;
7201;SDS011;3642;52.506;13.304;2022-07-04T08:52:28;1.00;;;0.90;;
7201;SDS011;3642;52.506;13.304;2022-07-04T08:55:04;1.55;;;1.10;;
7201;SDS011;3642;52.506;13.304;2022-07-04T08:57:50;2.88;;;1.20;;
7201;SDS011;3642;52.506;13.304;2022-07-04T09:00:37;1.17;;;1.17;;
7201;SDS011;3642;52.506;13.304;2022-07-04T09:03:06;1.10;;;1.00;;
7201;SDS011;3642;52.506;13.304;2022-07-04T09:05:35;1.02;;;1.02;;
7201;SDS011;3642;52.506;13.304;2022-07-04T09:08:04;2.47;;;1.20;;
7201;SDS011;3642;52.506;13.304;2022-07-04T09:10:33;3.75;;;1.80;;
7201;SDS011;3642;52.506;13.304;2022-07-04T09:13:02;2.40;;;1.08;;
7201;SDS011;3642;52.506;13.304;2022-07-04T09:15:38;2.40;;;1.35;;
7201;SDS011;3642;52.506;13.304;2022-07-04T09:18:08;1.73;;;1.08;;
7201;SDS011;3642;52.506;13.304;2022-07-04T09:20:48;1.30;;;1.20;;
7201;SDS011;3642;52.506;13.304;2022-07-04T09:23:17;1.48;;;1.20;;
7201;SDS011;3642;52.506;13.304;2022-07-04T09:25:48;4.18;;;1.50;;
7201;SDS011;3642;52.506;13.304;2022-07-04T09:28:32;2.22;;;1.25;;
7201;SDS011;3642;52.506;13.304;2022-07-04T09:31:01;1.40;;;1.20;;
7201;SDS011;3642;52.506;13.304;2022-07-04T09:33:50;1.95;;;1.25;;
7201;SDS011;3642;52.506;13.304;2022-07-04T09:36:20;1.40;;;1.08;;
7201;SDS011;3642;52.506;13.304;2022-07-04T09:39:09;1.65;;;1.00;;
7201;SDS011;3642;52.506;13.304;2022-07-04T09:41:57;1.52;;;1.35;;
7201;SDS011;3642;52.506;13.304;2022-07-04T09:44:27;1.65;;;1.00;;
7201;SDS011;3642;52.506;13.304;2022-07-04T09:46:56;1.70;;;1.17;;
7201;SDS011;3642;52.506;13.304;2022-07-04T09:49:25;1.70;;;1.05;;
7201;SDS011;3642;52.506;13.304;2022-07-04T09:51:53;2.25;;;1.10;;
7201;SDS011;3642;52.506;13.304;2022-07-04T09:54:22;2.50;;;1.10;;
7201;SDS011;3642;52.506;13.304;2022-07-04T09:56:54;2.15;;;1.23;;
7201;SDS011;3642;52.506;13.304;2022-07-04T09:59:26;1.42;;;1.13;;
7201;SDS011;3642;52.506;13.304;2022-07-04T10:02:07;1.30;;;1.00;;
7201;SDS011;3642;52.506;13.304;2022-07-04T10:04:43;1.33;;;1.20;;
7201;SDS011;3642;52.506;13.304;2022-07-04T10:07:29;1.75;;;1.10;;
7201;SDS011;3642;52.506;13.304;2022-07-04T10:09:58;1.33;;;0.93;;
7201;SDS011;3642;52.506;13.304;2022-07-04T10:12:27;1.00;;;0.90;;
7201;SDS011;3642;52.506;13.304;2022-07-04T10:14:57;1.08;;;1.00;;
7201;SDS011;3642;52.506;13.304;2022-07-04T10:17:25;1.15;;;1.00;;
7201;SDS011;3642;52.506;13.304;2022-07-04T10:19:53;4.05;;;1.23;;
7201;SDS011;3642;52.506;13.304;2022-07-04T10:22:22;1.10;;;0.80;;
7201;SDS011;3642;52.506;13.304;2022-07-04T10:24:51;1.50;;;1.40;;
7201;SDS011;3642;52.506;13.304;2022-07-04T10:27:19;2.85;;;1.20;;
7201;SDS011;3642;52.506;13.304;2022-07-04T10:29:48;2.35;;;1.10;;
7201;SDS011;3642;52.506;13.304;2022-07-04T10:32:18;1.80;;;1.00;;
7201;SDS011;3642;52.506;13.304;2022-07-04T10:34:47;1.00;;;0.90;;
7201;SDS011;3642;52.506;13.304;2022-07-04T10:37:15;1.30;;;0.95;;
7201;SDS011;3642;52.506;13.304;2022-07-04T10:39:44;1.15;;;1.05;;
7201;SDS011;3642;52.506;13.304;2022-07-04T10:42:21;1.30;;;1.20;;
7201;SDS011;3642;52.506;13.304;2022-07-04T10:44:50;1.38;;;1.15;;
7201;SDS011;3642;52.506;13.304;2022-07-04T10:47:24;2.75;;;1.08;;
7201;SDS011;3642;52.506;13.304;2022-07-04T10:49:54;0.80;;;0.80;;
7201;SDS011;3642;52.506;13.304;2022-07-04T10:52:22;2.22;;;0.82;;
7201;SDS011;3642;52.506;13.304;2022-07-04T10:54:51;3.42;;;2.13;;
7201;SDS011;3642;52.506;13.304;2022-07-04T10:57:20;1.33;;;1.23;;
7201;SDS011;3642;52.506;13.304;2022-07-04T11:02:35;1.30;;;0.90;;
7201;SDS011;3642;52.506;13.304;2022-07-04T11:05:06;2.60;;;1.95;;
7201;SDS011;3642;52.506;13.304;2022-07-04T11:10:23;2.65;;;1.52;;
7201;SDS011;3642;52.506;13.304;2022-07-04T11:13:03;2.35;;;1.10;;
7201;SDS011;3642;52.506;13.304;2022-07-04T11:15:56;1.17;;;1.08;;
7201;SDS011;3642;52.506;13.304;2022-07-04T11:18:33;1.73;;;1.05;;
7201;SDS011;3642;52.506;13.304;2022-07-04T11:21:18;1.77;;;1.65;;
7201;SDS011;3642;52.506;13.304;2022-07-04T11:23:49;1.10;;;1.10;;
7201;SDS011;3642;52.506;13.304;2022-07-04T11:26:21;2.75;;;1.27;;
7201;SDS011;3642;52.506;13.304;2022-07-04T11:28:51;1.90;;;1.10;;
7201;SDS011;3642;52.506;13.304;2022-07-04T11:31:19;3.38;;;2.20;;
7201;SDS011;3642;52.506;13.304;2022-07-04T11:33:53;4.82;;;3.25;;
7201;SDS011;3642;52.506;13.304;2022-07-04T11:36:22;2.72;;;1.80;;
7201;SDS011;3642;52.506;13.304;2022-07-04T11:38:52;12.70;;;8.45;;
7201;SDS011;3642;52.506;13.304;2022-07-04T11:41:22;3.72;;;2.60;;
7201;SDS011;3642;52.506;13.304;2022-07-04T11:44:10;3.13;;;2.03;;
7201;SDS011;3642;52.506;13.304;2022-07-04T11:47:10;3.13;;;1.88;;
7201;SDS011;3642;52.506;13.304;2022-07-04T11:49:44;2.08;;;1.98;;
7201;SDS011;3642;52.506;13.304;2022-07-04T11:52:15;3.28;;;2.53;;
7201;SDS011;3642;52.506;13.304;2022-07-04T11:55:02;2.45;;;1.40;;
7201;SDS011;3642;52.506;13.304;2022-07-04T11:57:33;2.35;;;1.55;;
7201;SDS011;3642;52.506;13.304;2022-07-04T12:00:03;1.67;;;1.20;;
7201;SDS011;3642;52.506;13.304;2022-07-04T12:02:41;2.25;;;1.17;;
7201;SDS011;3642;52.506;13.304;2022-07-04T12:05:12;2.05;;;1.40;;
7201;SDS011;3642;52.506;13.304;2022-07-04T12:07:41;1.30;;;1.00;;
7201;SDS011;3642;52.506;13.304;2022-07-04T12:10:30;1.40;;;1.30;;
7201;SDS011;3642;52.506;13.304;2022-07-04T12:13:00;3.38;;;2.83;;
7201;SDS011;3642;52.506;13.304;2022-07-04T12:15:35;2.30;;;2.00;;
7201;SDS011;3642;52.506;13.304;2022-07-04T12:18:04;3.33;;;2.42;;
7201;SDS011;3642;52.506;13.304;2022-07-04T12:20:43;1.20;;;1.10;;
7201;SDS011;3642;52.506;13.304;2022-07-04T12:23:12;1.00;;;1.00;;
7201;SDS011;3642;52.506;13.304;2022-07-04T12:25:40;1.67;;;1.10;;
7201;SDS011;3642;52.506;13.304;2022-07-04T12:28:12;1.00;;;1.00;;
7201;SDS011;3642;52.506;13.304;2022-07-04T12:30:48;1.23;;;1.00;;
7201;SDS011;3642;52.506;13.304;2022-07-04T12:33:17;1.20;;;1.00;;
7201;SDS011;3642;52.506;13.304;2022-07-04T12:35:49;2.58;;;0.98;;
7201;SDS011;3642;52.506;13.304;2022-07-04T12:38:18;1.48;;;0.90;;
7201;SDS011;3642;52.506;13.304;2022-07-04T12:40:50;0.93;;;0.93;;
7201;SDS011;3642;52.506;13.304;2022-07-04T12:43:22;2.35;;;0.90;;
7201;SDS011;3642;52.506;13.304;2022-07-04T12:45:53;1.60;;;0.85;;
7201;SDS011;3642;52.506;13.304;2022-07-04T12:48:24;1.15;;;0.95;;
7201;SDS011;3642;52.506;13.304;2022-07-04T12:51:07;0.73;;;0.73;;
7201;SDS011;3642;52.506;13.304;2022-07-04T12:53:38;0.75;;;0.75;;
7201;SDS011;3642;52.506;13.304;2022-07-04T12:56:08;7.75;;;5.57;;
7201;SDS011;3642;52.506;13.304;2022-07-04T12:58:37;1.35;;;1.27;;
7201;SDS011;3642;52.506;13.304;2022-07-04T13:01:05;1.10;;;1.00;;
7201;SDS011;3642;52.506;13.304;2022-07-04T13:03:33;0.88;;;0.88;;
7201;SDS011;3642;52.506;13.304;2022-07-04T13:06:03;2.17;;;1.92;;
7201;SDS011;3642;52.506;13.304;2022-07-04T13:08:32;1.83;;;1.27;;
7201;SDS011;3642;52.506;13.304;2022-07-04T13:11:01;5.38;;;4.38;;
7201;SDS011;3642;52.506;13.304;2022-07-04T13:13:46;1.88;;;1.63;;
7201;SDS011;3642;52.506;13.304;2022-07-04T13:16:15;2.15;;;1.20;;
7201;SDS011;3642;52.506;13.304;2022-07-04T13:18:43;1.35;;;1.20;;
7201;SDS011;3642;52.506;13.304;2022-07-04T13:21:13;1.15;;;0.90;;
7201;SDS011;3642;52.506;13.304;2022-07-04T13:23:41;1.70;;;0.88;;
7201;SDS011;3642;52.506;13.304;2022-07-04T13:26:10;0.90;;;0.80;;
7201;SDS011;3642;52.506;13.304;2022-07-04T13:28:38;1.20;;;1.10;;
7201;SDS011;3642;52.506;13.304;2022-07-04T13:31:09;1.00;;;0.85;;
7201;SDS011;3642;52.506;13.304;2022-07-04T13:33:40;2.55;;;1.10;;
7201;SDS011;3642;52.506;13.304;2022-07-04T13:36:10;1.65;;;1.13;;
7201;SDS011;3642;52.506;13.304;2022-07-04T13:38:41;1.00;;;0.90;;
7201;SDS011;3642;52.506;13.304;2022-07-04T13:41:28;1.10;;;0.80;;
7201;SDS011;3642;52.506;13.304;2022-07-04T13:43:59;0.80;;;0.80;;
7201;SDS011;3642;52.506;13.304;2022-07-04T13:46:30;4.13;;;1.10;;
7201;SDS011;3642;52.506;13.304;2022-07-04T13:49:03;1.20;;;1.05;;
7201;SDS011;3642;52.506;13.304;2022-07-04T13:51:40;3.47;;;1.80;;
7201;SDS011;3642;52.506;13.304;2022-07-04T13:54:09;2.65;;;1.90;;
7201;SDS011;3642;52.506;13.304;2022-07-04T13:56:50;2.25;;;1.15;;
7201;SDS011;3642;52.506;13.304;2022-07-04T13:59:19;1.95;;;1.13;;
7201;SDS011;3642;52.506;13.304;2022-07-04T14:01:48;1.05;;;0.80;;
7201;SDS011;3642;52.506;13.304;2022-07-04T14:04:22;1.45;;;0.70;;
7201;SDS011;3642;52.506;13.304;2022-07-04T14:06:57;1.17;;;0.80;;
7201;SDS011;3642;52.506;13.304;2022-07-04T14:09:26;1.10;;;1.00;;
7201;SDS011;3642;52.506;13.304;2022-07-04T14:11:55;1.23;;;0.80;;
7201;SDS011;3642;52.506;13.304;2022-07-04T14:14:23;1.35;;;0.88;;
7201;SDS011;3642;52.506;13.304;2022-07-04T14:16:51;0.80;;;0.80;;
7201;SDS011;3642;52.506;13.304;2022-07-04T14:19:19;2.88;;;2.67;;
7201;SDS011;3642;52.506;13.304;2022-07-04T14:21:47;1.63;;;1.33;;
7201;SDS011;3642;52.506;13.304;2022-07-04T14:24:19;1.80;;;1.50;;
7201;SDS011;3642;52.506;13.304;2022-07-04T14:26:50;4.43;;;3.92;;
7201;SDS011;3642;52.506;13.304;2022-07-04T14:29:18;1.92;;;1.35;;
7201;SDS011;3642;52.506;13.304;2022-07-04T14:31:47;1.45;;;1.30;;
7201;SDS011;3642;52.506;13.304;2022-07-04T14:34:17;1.20;;;1.10;;
7201;SDS011;3642;52.506;13.304;2022-07-04T14:36:46;2.88;;;1.00;;
7201;SDS011;3642;52.506;13.304;2022-07-04T14:39:14;1.13;;;1.00;;
7201;SDS011;3642;52.506;13.304;2022-07-04T14:41:44;1.45;;;1.10;;
7201;SDS011;3642;52.506;13.304;2022-07-04T14:44:16;1.15;;;1.10;;
7201;SDS011;3642;52.506;13.304;2022-07-04T14:46:44;0.90;;;0.85;;
7201;SDS011;3642;52.506;13.304;2022-07-04T14:49:12;3.53;;;1.70;;
7201;SDS011;3642;52.506;13.304;2022-07-04T14:51:40;1.83;;;1.30;;
7201;SDS011;3642;52.506;13.304;2022-07-04T14:54:09;1.02;;;0.95;;
7201;SDS011;3642;52.506;13.304;2022-07-04T14:56:37;1.50;;;0.90;;
7201;SDS011;3642;52.506;13.304;2022-07-04T14:59:08;1.88;;;1.10;;
7201;SDS011;3642;52.506;13.304;2022-07-04T15:01:36;1.10;;;1.00;;
7201;SDS011;3642;52.506;13.304;2022-07-04T15:04:05;2.22;;;1.02;;
7201;SDS011;3642;52.506;13.304;2022-07-04T15:06:34;1.33;;;1.02;;
7201;SDS011;3642;52.506;13.304;2022-07-04T15:09:02;1.63;;;0.85;;
7201;SDS011;3642;52.506;13.304;2022-07-04T15:11:31;1.13;;;1.00;;
7201;SDS011;3642;52.506;13.304;2022-07-04T15:14:00;0.85;;;0.85;;
7201;SDS011;3642;52.506;13.304;2022-07-04T15:16:30;1.58;;;1.00;;
7201;SDS011;3642;52.506;13.304;2022-07-04T15:18:58;1.25;;;1.15;;
7201;SDS011;3642;52.506;13.304;2022-07-04T15:21:27;1.10;;;1.00;;
7201;SDS011;3642;52.506;13.304;2022-07-04T15:24:13;25.30;;;14.25;;
7201;SDS011;3642;52.506;13.304;2022-07-04T15:26:44;3.83;;;2.88;;